createdAt,value
2019-04-29T00:01:53.733Z,3.40
2019-04-29T00:04:58.898Z,2.60
2019-04-29T00:08:04.120Z,3.20
2019-04-29T00:11:09.367Z,4.00
2019-04-29T00:14:14.711Z,3.47
2019-04-29T00:17:29.671Z,3.20
2019-04-29T00:20:42.313Z,3.50
2019-04-29T00:23:47.466Z,3.67
2019-04-29T00:26:52.790Z,3.93
2019-04-29T00:29:57.978Z,3.50
2019-04-29T00:33:03.319Z,3.57
2019-04-29T00:36:08.482Z,3.70
2019-04-29T00:39:32.426Z,3.63
2019-04-29T00:43:02.473Z,3.60
2019-04-29T00:46:08.000Z,3.70
2019-04-29T00:49:13.277Z,3.80
2019-04-29T00:52:18.524Z,3.53
2019-04-29T00:55:27.096Z,3.20
2019-04-29T00:58:32.298Z,3.77
2019-04-29T01:01:37.411Z,3.20
2019-04-29T01:04:42.509Z,3.50
2019-04-29T01:07:47.679Z,3.80
2019-04-29T01:10:52.991Z,3.43
2019-04-29T01:13:58.119Z,3.50
2019-04-29T01:17:03.251Z,3.47
2019-04-29T01:20:08.941Z,3.83
2019-04-29T01:23:14.101Z,3.70
2019-04-29T01:26:36.919Z,4.10
2019-04-29T01:29:42.212Z,3.93
2019-04-29T01:32:47.366Z,3.37
2019-04-29T01:35:57.885Z,3.47
2019-04-29T01:39:05.645Z,3.80
2019-04-29T01:42:21.948Z,3.03
2019-04-29T01:45:27.113Z,3.23
2019-04-29T01:48:32.306Z,3.67
2019-04-29T01:51:37.432Z,3.37
2019-04-29T01:54:42.578Z,3.77
2019-04-29T01:57:47.744Z,3.87
2019-04-29T02:00:52.893Z,3.50
2019-04-29T02:03:58.054Z,3.43
2019-04-29T02:07:03.247Z,3.70
2019-04-29T02:10:19.393Z,3.40
2019-04-29T02:13:24.508Z,3.73
2019-04-29T02:16:29.689Z,3.57
2019-04-29T02:19:34.826Z,3.90
2019-04-29T02:22:45.282Z,4.03
2019-04-29T02:25:50.532Z,3.50
2019-04-29T02:28:55.695Z,3.60
2019-04-29T02:32:00.945Z,3.30
2019-04-29T02:35:06.177Z,3.00
2019-04-29T02:38:17.787Z,3.70
2019-04-29T02:41:35.008Z,3.70
2019-04-29T02:44:40.172Z,3.20
2019-04-29T02:47:45.393Z,3.43
2019-04-29T02:50:50.517Z,3.57
2019-04-29T02:53:55.737Z,3.57
2019-04-29T02:57:06.212Z,3.63
2019-04-29T03:00:33.727Z,3.37
2019-04-29T03:04:03.716Z,3.50
2019-04-29T03:07:08.974Z,3.00
2019-04-29T03:10:14.382Z,3.60
2019-04-29T03:13:19.469Z,3.37
2019-04-29T03:16:24.627Z,3.43
2019-04-29T03:19:34.425Z,3.73
2019-04-29T03:22:40.674Z,3.47
2019-04-29T03:25:45.834Z,3.43
2019-04-29T03:28:51.184Z,3.60
2019-04-29T03:31:57.845Z,3.50
2019-04-29T03:35:03.081Z,3.63
2019-04-29T03:38:08.268Z,4.03
2019-04-29T03:41:13.440Z,3.87
2019-04-29T03:44:18.655Z,3.67
2019-04-29T03:47:23.803Z,3.00
2019-04-29T03:50:29.062Z,3.80
2019-04-29T03:53:34.276Z,3.13
2019-04-29T03:56:40.087Z,3.30
2019-04-29T03:59:45.239Z,3.23
2019-04-29T04:02:59.187Z,3.50
2019-04-29T04:06:29.612Z,3.30
2019-04-29T04:09:35.781Z,3.60
2019-04-29T04:12:41.153Z,3.60
2019-04-29T04:15:46.404Z,3.20
2019-04-29T04:18:57.062Z,3.70
2019-04-29T04:22:02.317Z,2.90
2019-04-29T04:25:07.538Z,3.33
2019-04-29T04:28:12.667Z,4.37
2019-04-29T04:31:17.801Z,3.50
2019-04-29T04:34:23.078Z,3.80
2019-04-29T04:37:28.211Z,3.73
2019-04-29T04:40:40.791Z,3.77
2019-04-29T04:43:46.042Z,3.60
2019-04-29T04:46:51.166Z,4.40
2019-04-29T04:49:56.344Z,4.10
2019-04-29T04:53:03.138Z,3.33
2019-04-29T04:56:08.287Z,3.40
2019-04-29T04:59:13.397Z,3.70
2019-04-29T05:02:18.521Z,4.03
2019-04-29T05:05:23.708Z,3.93
2019-04-29T05:08:28.899Z,3.57
2019-04-29T05:11:34.030Z,3.10
2019-04-29T05:14:39.218Z,2.77
2019-04-29T05:17:44.473Z,3.13
2019-04-29T05:20:49.687Z,2.80
2019-04-29T05:23:54.799Z,3.30
2019-04-29T05:26:59.913Z,2.90
2019-04-29T05:30:05.775Z,3.23
2019-04-29T05:33:10.909Z,3.50
2019-04-29T05:36:29.751Z,3.70
2019-04-29T05:39:37.635Z,4.07
2019-04-29T05:42:42.806Z,3.60
2019-04-29T05:45:54.959Z,3.50
2019-04-29T05:49:02.333Z,3.30
2019-04-29T05:52:15.255Z,3.47
2019-04-29T05:55:20.533Z,3.43
2019-04-29T05:58:25.643Z,3.30
2019-04-29T06:01:31.534Z,3.60
2019-04-29T06:04:36.691Z,3.60
2019-04-29T06:07:41.910Z,3.70
2019-04-29T06:10:47.080Z,3.57
2019-04-29T06:13:52.239Z,3.43
2019-04-29T06:17:02.463Z,3.37
2019-04-29T06:20:04.593Z,3.60
2019-04-29T06:23:09.724Z,3.00
2019-04-29T06:26:15.930Z,3.40
2019-04-29T06:29:21.069Z,3.23
2019-04-29T06:32:26.469Z,3.40
2019-04-29T06:35:31.657Z,2.87
2019-04-29T06:38:36.893Z,3.33
2019-04-29T06:41:45.513Z,3.23
2019-04-29T06:44:50.498Z,3.67
2019-04-29T06:47:55.593Z,3.53
2019-04-29T06:51:00.728Z,2.80
2019-04-29T06:54:05.932Z,3.57
2019-04-29T06:57:11.161Z,3.27
2019-04-29T07:00:21.682Z,3.03
2019-04-29T07:03:25.541Z,3.47
2019-04-29T07:06:30.059Z,3.03
2019-04-29T07:09:35.161Z,3.23
2019-04-29T07:12:42.791Z,3.60
2019-04-29T07:15:48.903Z,2.93
2019-04-29T07:18:54.173Z,3.23
2019-04-29T07:21:59.383Z,4.13
2019-04-29T07:25:04.725Z,4.03
2019-04-29T07:28:13.751Z,3.30
2019-04-29T07:31:17.890Z,3.07
2019-04-29T07:34:23.025Z,4.17
2019-04-29T07:37:29.889Z,3.73
2019-04-29T07:40:38.702Z,3.60
2019-04-29T07:43:43.044Z,3.50
2019-04-29T07:46:56.769Z,3.70
2019-04-29T07:49:58.876Z,3.43
2019-04-29T07:53:04.036Z,3.10
2019-04-29T07:56:09.280Z,4.07
2019-04-29T07:59:14.435Z,3.13
2019-04-29T08:02:19.540Z,3.50
2019-04-29T08:05:24.854Z,3.43
2019-04-29T08:08:32.064Z,4.07
2019-04-29T08:11:37.676Z,3.77
2019-04-29T08:14:43.807Z,3.10
2019-04-29T08:17:51.393Z,3.27
2019-04-29T08:20:55.807Z,3.13
2019-04-29T08:24:00.953Z,3.20
2019-04-29T08:27:06.120Z,3.33
2019-04-29T08:30:12.799Z,2.67
2019-04-29T08:33:18.140Z,3.20
2019-04-29T08:36:23.290Z,3.20
2019-04-29T08:39:29.323Z,2.43
2019-04-29T08:42:41.853Z,2.23
2019-04-29T08:45:49.502Z,1.97
2019-04-29T08:48:54.709Z,1.80
2019-04-29T08:52:00.880Z,1.60
2019-04-29T08:55:06.570Z,2.10
2019-04-29T08:58:12.911Z,2.00
2019-04-29T09:01:18.102Z,1.90
2019-04-29T09:04:23.265Z,2.77
2019-04-29T09:07:28.399Z,2.33
2019-04-29T09:10:36.774Z,2.47
2019-04-29T09:13:40.314Z,2.17
2019-04-29T09:16:45.491Z,2.40
2019-04-29T09:19:50.775Z,2.57
2019-04-29T09:23:00.520Z,2.37
2019-04-29T09:26:24.715Z,2.30
2019-04-29T09:29:36.614Z,2.60
2019-04-29T09:32:41.911Z,2.50
2019-04-29T09:35:47.098Z,3.17
2019-04-29T09:38:52.238Z,3.30
2019-04-29T09:42:19.420Z,3.03
2019-04-29T09:45:30.988Z,3.20
2019-04-29T09:48:36.175Z,3.60
2019-04-29T09:51:41.405Z,3.23
2019-04-29T09:54:46.588Z,2.73
2019-04-29T09:57:51.899Z,3.20
2019-04-29T10:01:21.977Z,3.20
2019-04-29T10:04:56.446Z,3.27
2019-04-29T10:07:56.066Z,2.63
2019-04-29T10:11:01.259Z,2.40
2019-04-29T10:14:06.570Z,3.07
2019-04-29T10:17:36.743Z,3.10
2019-04-29T10:20:54.259Z,2.90
2019-04-29T10:23:59.472Z,2.70
2019-04-29T10:27:07.354Z,2.80
2019-04-29T10:30:13.898Z,2.67
2019-04-29T10:33:22.819Z,3.47
2019-04-29T10:36:26.539Z,2.87
2019-04-29T10:39:49.455Z,3.23
2019-04-29T10:43:17.889Z,3.90
2019-04-29T10:46:40.686Z,2.67
2019-04-29T10:49:49.942Z,2.90
2019-04-29T10:52:56.136Z,2.70
2019-04-29T10:56:05.637Z,3.00
2019-04-29T10:59:11.168Z,3.50
2019-04-29T11:02:34.574Z,3.60
2019-04-29T11:05:59.975Z,3.10
2019-04-29T11:09:00.352Z,4.00
2019-04-29T11:12:09.951Z,3.40
2019-04-29T11:15:16.786Z,4.10
2019-04-29T11:18:23.214Z,3.90
2019-04-29T11:21:29.356Z,3.63
2019-04-29T11:24:50.079Z,4.33
2019-04-29T11:27:56.298Z,3.83
2019-04-29T11:31:02.614Z,3.87
2019-04-29T11:34:33.537Z,4.33
2019-04-29T11:37:38.867Z,3.80
2019-04-29T11:40:44.555Z,4.20
2019-04-29T11:43:51.093Z,3.83
2019-04-29T11:46:56.755Z,3.30
2019-04-29T11:50:13.721Z,3.93
2019-04-29T11:53:18.867Z,4.10
2019-04-29T11:56:24.142Z,3.63
2019-04-29T11:59:40.050Z,3.97
2019-04-29T12:02:54.308Z,3.20
2019-04-29T12:06:02.266Z,3.50
2019-04-29T12:09:08.366Z,3.10
2019-04-29T12:12:15.199Z,3.30
2019-04-29T12:15:37.161Z,3.00
2019-04-29T12:18:49.628Z,3.27
2019-04-29T12:21:55.301Z,3.13
2019-04-29T12:25:00.510Z,3.30
2019-04-29T12:28:18.808Z,3.80
2019-04-29T12:31:20.234Z,3.27
2019-04-29T12:34:48.461Z,2.93
2019-04-29T12:38:11.433Z,3.40
2019-04-29T12:41:47.678Z,3.20
2019-04-29T12:45:03.610Z,3.10
2019-04-29T12:48:09.105Z,3.80
2019-04-29T12:51:16.958Z,3.80
2019-04-29T12:54:21.153Z,4.80
2019-04-29T12:57:26.352Z,4.00
2019-04-29T13:00:46.343Z,4.00
2019-04-29T13:04:02.067Z,4.13
2019-04-29T13:07:24.972Z,4.23
2019-04-29T13:10:44.223Z,3.80
2019-04-29T13:13:51.251Z,3.60
2019-04-29T13:17:14.444Z,3.93
2019-04-29T13:20:15.123Z,6.77
2019-04-29T13:23:33.209Z,4.90
2019-04-29T13:26:28.611Z,4.57
2019-04-29T13:29:36.202Z,4.93
2019-04-29T13:32:41.123Z,4.53
2019-04-29T13:35:48.363Z,5.00
2019-04-29T13:38:53.387Z,5.00
2019-04-29T13:42:02.852Z,3.90
2019-04-29T13:45:12.990Z,5.67
2019-04-29T13:48:25.978Z,6.40
2019-04-29T13:51:35.676Z,6.30
2019-04-29T13:54:42.395Z,5.60
2019-04-29T13:57:49.111Z,5.37
2019-04-29T14:01:03.652Z,5.67
2019-04-29T14:04:24.180Z,4.73
2019-04-29T14:07:26.686Z,4.60
2019-04-29T14:10:34.719Z,5.37
2019-04-29T14:13:43.632Z,5.30
2019-04-29T14:16:47.547Z,7.17
2019-04-29T14:19:56.953Z,5.03
2019-04-29T14:23:00.846Z,5.07
2019-04-29T14:26:06.050Z,4.70
2019-04-29T14:29:11.276Z,4.00
2019-04-29T14:32:18.176Z,5.03
2019-04-29T14:35:48.347Z,4.50
2019-04-29T14:38:53.610Z,4.50
2019-04-29T14:42:02.459Z,4.30
2019-04-29T14:45:26.775Z,5.47
2019-04-29T14:48:42.738Z,4.90
2019-04-29T14:51:42.884Z,4.70
2019-04-29T14:54:48.054Z,4.17
2019-04-29T14:57:53.220Z,4.50
2019-04-29T15:01:16.134Z,4.60
2019-04-29T15:04:23.716Z,4.60
2019-04-29T15:07:36.032Z,5.03
2019-04-29T15:10:42.056Z,5.50
2019-04-29T15:13:49.139Z,6.10
2019-04-29T15:17:00.646Z,4.47
2019-04-29T15:20:15.445Z,4.30
2019-04-29T15:23:28.275Z,4.20
2019-04-29T15:26:27.465Z,4.70
2019-04-29T15:29:33.563Z,4.50
2019-04-29T15:32:38.805Z,4.20
2019-04-29T15:35:44.106Z,4.13
2019-04-29T15:39:07.932Z,4.30
2019-04-29T15:41:57.252Z,4.07
2019-04-29T15:45:02.437Z,4.07
2019-04-29T15:48:10.506Z,3.70
2019-04-29T15:51:15.850Z,4.43
2019-04-29T15:54:21.022Z,4.47
2019-04-29T15:57:26.480Z,4.80
2019-04-29T16:00:37.932Z,5.07
2019-04-29T16:03:38.944Z,4.50
2019-04-29T16:07:02.453Z,4.80
2019-04-29T16:10:32.888Z,4.50
2019-04-29T16:13:38.109Z,5.57
2019-04-29T16:16:43.277Z,6.33
2019-04-29T16:19:48.426Z,6.07
2019-04-29T16:22:54.084Z,5.57
2019-04-29T16:26:00.563Z,6.50
2019-04-29T16:29:12.483Z,6.30
2019-04-29T16:32:16.668Z,6.53
2019-04-29T16:35:23.639Z,5.90
2019-04-29T16:38:28.740Z,6.20
2019-04-29T16:42:02.189Z,9.47
2019-04-29T16:45:12.228Z,6.80
2019-04-29T16:48:16.145Z,7.07
2019-04-29T16:51:21.346Z,7.00
2019-04-29T16:54:28.503Z,7.23
2019-04-29T16:57:33.511Z,7.13
2019-04-29T17:00:39.965Z,7.80
2019-04-29T17:03:45.236Z,7.33
2019-04-29T17:10:20.343Z,7.53
2019-04-29T17:13:25.680Z,8.03
2019-04-29T17:16:30.844Z,8.17
2019-04-29T17:19:35.943Z,8.07
2019-04-29T17:22:43.215Z,8.50
2019-04-29T17:25:47.959Z,8.47
2019-04-29T17:29:37.273Z,7.83
2019-04-29T17:32:54.105Z,8.93
2019-04-29T17:35:15.990Z,7.10
2019-04-29T17:35:59.743Z,8.27
2019-04-29T17:39:06.811Z,8.70
2019-04-29T17:42:12.855Z,8.83
2019-04-29T17:45:30.583Z,9.17
2019-04-29T17:48:38.374Z,9.07
2019-04-29T17:51:45.880Z,8.97
2019-04-29T17:54:55.051Z,9.10
2019-04-29T17:58:08.545Z,9.67
2019-04-29T18:01:28.953Z,9.63
2019-04-29T18:04:49.659Z,9.60
2019-04-29T18:08:23.901Z,9.60
2019-04-29T18:11:30.260Z,9.37
2019-04-29T18:14:40.322Z,9.80
2019-04-29T18:17:42.456Z,10.17
2019-04-29T18:21:19.206Z,9.77
2019-04-29T18:24:52.562Z,9.97
2019-04-29T18:28:00.323Z,9.70
2019-04-29T18:31:06.494Z,9.60
2019-04-29T18:34:11.693Z,9.23
2019-04-29T18:37:18.519Z,9.90
2019-04-29T18:40:25.742Z,9.60
2019-04-29T18:43:30.574Z,9.67
2019-04-29T18:46:35.792Z,9.47
2019-04-29T18:49:40.992Z,10.03
2019-04-29T18:52:46.179Z,10.17
2019-04-29T18:55:51.569Z,12.87
2019-04-29T18:58:56.710Z,13.20
2019-04-29T19:02:07.715Z,12.90
2019-04-29T19:05:20.004Z,12.47
2019-04-29T19:08:28.695Z,13.40
2019-04-29T19:11:32.873Z,12.07
2019-04-29T19:14:38.798Z,12.37
2019-04-29T19:17:46.580Z,11.57
2019-04-29T19:20:52.939Z,10.77
2019-04-29T19:24:00.685Z,10.60
2019-04-29T19:27:09.446Z,10.40
2019-04-29T19:30:14.280Z,10.53
2019-04-29T19:33:20.115Z,9.73
2019-04-29T19:36:25.320Z,9.10
2019-04-29T19:39:30.594Z,10.30
2019-04-29T19:42:39.642Z,9.00
2019-04-29T19:45:44.699Z,9.57
2019-04-29T19:48:49.645Z,9.47
2019-04-29T19:51:55.542Z,11.00
2019-04-29T19:55:01.550Z,11.90
2019-04-29T19:58:11.982Z,11.30
2019-04-29T20:01:26.556Z,12.33
2019-04-29T20:04:32.153Z,9.67
2019-04-29T20:07:42.367Z,9.13
2019-04-29T20:10:49.735Z,11.00
2019-04-29T20:14:02.087Z,12.10
2019-04-29T20:17:20.477Z,11.83
2019-04-29T20:20:50.886Z,10.53
2019-04-29T20:23:56.297Z,10.30
2019-04-29T20:27:01.612Z,9.50
2019-04-29T20:30:15.988Z,9.33
2019-04-29T20:33:16.114Z,10.60
2019-04-29T20:36:33.068Z,10.87
2019-04-29T20:39:28.255Z,11.43
2019-04-29T20:42:35.651Z,11.53
2019-04-29T20:45:40.689Z,10.97
2019-04-29T20:48:50.015Z,11.43
2019-04-29T20:51:56.692Z,11.07
2019-04-29T20:55:02.787Z,11.93
2019-04-29T20:58:08.249Z,11.20
2019-04-29T21:01:19.993Z,11.43
2019-04-29T21:04:33.784Z,11.13
2019-04-29T21:07:32.294Z,11.90
2019-04-29T21:10:37.829Z,12.57
2019-04-29T21:13:55.974Z,12.53
2019-04-29T21:17:02.312Z,11.90
2019-04-29T21:20:05.557Z,12.87
2019-04-29T21:23:10.901Z,13.00
2019-04-29T21:26:16.065Z,12.10
2019-04-29T21:29:21.202Z,12.83
2019-04-29T21:32:30.501Z,12.67
2019-04-29T21:35:43.057Z,12.03
2019-04-29T21:39:07.258Z,12.60
2019-04-29T21:42:35.511Z,11.70
2019-04-29T21:45:39.816Z,11.77
2019-04-29T21:48:43.626Z,12.43
2019-04-29T21:51:49.922Z,11.83
2019-04-29T21:54:57.005Z,12.87
2019-04-29T21:58:01.945Z,13.13
2019-04-29T22:01:07.920Z,13.13
2019-04-29T22:04:13.373Z,13.30
2019-04-29T22:07:19.103Z,14.60
2019-04-29T22:10:28.876Z,13.23
2019-04-29T22:13:35.675Z,13.47
2019-04-29T22:16:38.268Z,12.97
2019-04-29T22:19:45.033Z,12.07
2019-04-29T22:22:50.365Z,12.90
2019-04-29T22:25:56.740Z,13.23
2019-04-29T22:29:03.525Z,12.37
2019-04-29T22:32:14.431Z,13.60
2019-04-29T22:35:16.563Z,13.20
2019-04-29T22:38:21.884Z,12.57
2019-04-29T22:41:48.757Z,13.00
2019-04-29T22:44:57.318Z,13.33
2019-04-29T22:48:12.155Z,13.60
2019-04-29T22:51:10.147Z,14.07
2019-04-29T22:54:17.640Z,14.40
2019-04-29T22:57:22.900Z,12.97
2019-04-29T23:00:32.693Z,13.30
2019-04-29T23:03:38.731Z,14.27
2019-04-29T23:06:47.916Z,14.53
2019-04-29T23:09:51.049Z,14.93
2019-04-29T23:12:57.531Z,14.30
2019-04-29T23:16:03.855Z,14.27
2019-04-29T23:19:09.858Z,14.53
2019-04-29T23:22:29.059Z,14.90
2019-04-29T23:25:38.422Z,15.10
2019-04-29T23:28:45.651Z,13.50
2019-04-29T23:31:50.501Z,14.27
2019-04-29T23:34:57.272Z,13.27
2019-04-29T23:38:04.264Z,14.23
2019-04-29T23:41:09.388Z,12.63
2019-04-29T23:44:14.587Z,13.70
2019-04-29T23:47:19.858Z,13.30
2019-04-29T23:50:27.880Z,12.17
2019-04-29T23:53:31.859Z,13.13
2019-04-29T23:56:48.263Z,14.67
